This is the latest recevied weather packets stored in our database for station/object DL1NER. If no packets are shown the sender has not sent any weather packets the latest 1 day(s).
| Time | Temp. | Humidity | Pressure | Rain* | Wind** | Luminosity | Snow |
|---|---|---|---|---|---|---|---|
| 1836274386 | 11.67° C | 89% | 1021 hPa | 0 mm | 0.89 m/s, 94° | 0 W/m² | - |
| 1836274237 | 11.67° C | 90% | 1020.8 hPa | 0 mm | 0.89 m/s, 94° | 0 W/m² | - |
| 1778005213 | 13.33° C | 84% | 1006 hPa | 0 mm | 1.79 m/s, 265° | 0 W/m² | - |
| 1778004613 | 13.89° C | 84% | 1006.1 hPa | 0 mm | 2.24 m/s, 260° | 0 W/m² | - |
| 1778004020 | 13.89° C | 85% | 1005.9 hPa | 0 mm | 2.68 m/s, 248° | 0 W/m² | - |
| 1778003413 | 13.89° C | 85% | 1006.2 hPa | 0 mm | 1.79 m/s, 234° | 0 W/m² | - |
| 1778002813 | 13.89° C | 85% | 1006.1 hPa | 0.25 mm | 1.34 m/s, 231° | 0 W/m² | - |
| 1778002213 | 13.89° C | 85% | 1006 hPa | 0.51 mm | 0.89 m/s, 238° | 0 W/m² | - |
| 1778001613 | 13.89° C | 84% | 1005.9 hPa | 0.51 mm | 0.89 m/s, 251° | 0 W/m² | - |
| 1778001013 | 13.89° C | 83% | 1005.7 hPa | 1.02 mm | 1.79 m/s, 266° | 0 W/m² | - |
| 1778000413 | 13.89° C | 83% | 1005.7 hPa | 1.52 mm | 1.34 m/s, 268° | 0 W/m² | - |
| 1777999813 | 13.89° C | 81% | 1005.8 hPa | 1.52 mm | 0.89 m/s, 227° | 0 W/m² | - |
| 1777999213 | 13.89° C | 79% | 1006 hPa | 1.52 mm | 1.34 m/s, 225° | 0 W/m² | - |
| 1777998613 | 13.89° C | 77% | 1006.2 hPa | 1.52 mm | 2.24 m/s, 258° | 0 W/m² | - |
| 1777998013 | 14.44° C | 76% | 1006.3 hPa | 1.52 mm | 2.24 m/s, 221° | 0 W/m² | - |
| 1777997413 | 14.44° C | 74% | 1006.3 hPa | 1.02 mm | 2.24 m/s, 239° | 0 W/m² | - |
| 1777996813 | 15° C | 74% | 1006.2 hPa | 0.51 mm | 3.13 m/s, 252° | 0 W/m² | - |
| 1777996213 | 15.56° C | 71% | 1006.2 hPa | 0.51 mm | 3.13 m/s, 229° | 0 W/m² | - |
| 1777995613 | 16.11° C | 70% | 1006 hPa | 0.25 mm | 3.13 m/s, 200° | 0 W/m² | - |
| 1777995013 | 16.67° C | 65% | 1005.9 hPa | 0.25 mm | 4.47 m/s, 210° | 0 W/m² | - |
| 1777994412 | 19.44° C | 59% | 1005.6 hPa | 0 mm | 4.02 m/s, 200° | 0 W/m² | - |
| 1777993813 | 20.56° C | 51% | 1004.7 hPa | 0 mm | 0.89 m/s, 211° | 0 W/m² | - |
| 1777993213 | 20.56° C | 48% | 1004.6 hPa | 0 mm | 0.89 m/s, 259° | 0 W/m² | - |
| 1777992612 | 21.11° C | 51% | 1004.5 hPa | 0 mm | 0.89 m/s, 260° | 0 W/m² | - |
| 1777992013 | 21.11° C | 51% | 1004.5 hPa | 0 mm | 0.89 m/s, 323° | 0 W/m² | - |
* Rain latest hour (hover to see other rain measurements)
** Current wind speed in m/s (hover to see current wind gust speed)